createdAt,value
2018-11-03T00:01:20.098Z,17.77
2018-11-03T00:03:48.325Z,17.60
2018-11-03T00:06:16.499Z,18.00
2018-11-03T00:08:44.662Z,18.87
2018-11-03T00:11:12.828Z,18.97
2018-11-03T00:13:40.987Z,18.00
2018-11-03T00:16:09.170Z,18.00
2018-11-03T00:18:37.284Z,18.47
2018-11-03T00:21:05.491Z,19.90
2018-11-03T00:23:33.725Z,18.03
2018-11-03T00:26:01.875Z,19.23
2018-11-03T00:28:30.119Z,17.60
2018-11-03T00:30:58.322Z,18.10
2018-11-03T00:33:26.511Z,17.87
2018-11-03T00:35:54.728Z,17.23
2018-11-03T00:38:23.143Z,19.27
2018-11-03T00:40:51.301Z,17.20
2018-11-03T00:43:19.465Z,18.40
2018-11-03T00:45:47.640Z,18.07
2018-11-03T00:48:15.757Z,16.20
2018-11-03T00:50:43.930Z,24.83
2018-11-03T00:53:12.103Z,18.53
2018-11-03T00:55:40.262Z,17.80
2018-11-03T00:58:08.383Z,17.13
2018-11-03T01:00:36.503Z,16.13
2018-11-03T01:03:04.894Z,13.00
2018-11-03T01:05:33.078Z,14.67
2018-11-03T01:08:01.314Z,14.13
2018-11-03T01:10:29.588Z,15.53
2018-11-03T01:12:57.727Z,15.13
2018-11-03T01:15:25.854Z,15.30
2018-11-03T01:17:54.097Z,12.97
2018-11-03T01:20:22.246Z,13.97
2018-11-03T01:22:50.475Z,15.07
2018-11-03T01:25:18.638Z,14.93
2018-11-03T01:27:46.787Z,15.27
2018-11-03T01:30:16.065Z,14.00
2018-11-03T01:32:44.366Z,14.63
2018-11-03T01:35:12.512Z,15.30
2018-11-03T01:37:40.934Z,14.33
2018-11-03T01:40:10.761Z,14.33
2018-11-03T01:42:39.128Z,13.63
2018-11-03T01:45:07.378Z,14.07
2018-11-03T01:47:36.049Z,14.53
2018-11-03T01:50:06.248Z,13.87
2018-11-03T01:52:35.011Z,14.40
2018-11-03T01:55:03.457Z,14.13
2018-11-03T01:57:31.619Z,16.13
2018-11-03T01:59:59.749Z,15.60
2018-11-03T02:02:27.973Z,15.03
2018-11-03T02:04:56.071Z,16.77
2018-11-03T02:07:24.216Z,15.90
2018-11-03T02:09:52.341Z,15.63
2018-11-03T02:12:20.521Z,15.90
2018-11-03T02:14:48.653Z,14.80
2018-11-03T02:17:16.848Z,15.00
2018-11-03T02:19:44.999Z,17.27
2018-11-03T02:22:13.103Z,16.00
2018-11-03T02:24:41.456Z,14.77
2018-11-03T02:27:09.597Z,16.87
2018-11-03T02:29:37.766Z,15.90
2018-11-03T02:32:05.912Z,16.67
2018-11-03T02:34:34.079Z,15.47
2018-11-03T02:37:02.287Z,17.03
2018-11-03T02:39:30.509Z,15.87
2018-11-03T02:41:58.674Z,17.10
2018-11-03T02:44:26.813Z,15.63
2018-11-03T02:46:54.983Z,16.60
2018-11-03T02:49:23.100Z,18.03
2018-11-03T02:51:51.252Z,16.50
2018-11-03T02:54:19.368Z,17.07
2018-11-03T02:56:47.548Z,16.53
2018-11-03T02:59:15.658Z,17.20
2018-11-03T03:01:43.839Z,17.50
2018-11-03T03:04:11.997Z,17.20
2018-11-03T03:06:40.172Z,16.30
2018-11-03T03:09:08.655Z,17.80
2018-11-03T03:11:36.884Z,17.33
2018-11-03T03:14:05.025Z,18.83
2018-11-03T03:16:33.472Z,17.40
2018-11-03T03:19:01.608Z,17.53
2018-11-03T03:21:29.792Z,18.07
2018-11-03T03:23:57.928Z,17.93
2018-11-03T03:26:26.068Z,19.47
2018-11-03T03:28:54.298Z,19.70
2018-11-03T03:31:22.380Z,20.03
2018-11-03T03:33:50.574Z,19.43
2018-11-03T03:36:18.743Z,19.17
2018-11-03T03:38:46.868Z,19.40
2018-11-03T03:41:15.065Z,20.20
2018-11-03T03:43:43.173Z,20.63
2018-11-03T03:46:11.324Z,20.40
2018-11-03T03:48:39.484Z,20.10
2018-11-03T03:51:07.676Z,19.87
2018-11-03T03:53:35.796Z,20.37
2018-11-03T03:56:04.012Z,20.90
2018-11-03T03:58:32.160Z,21.50
2018-11-03T04:01:00.439Z,20.03
2018-11-03T04:03:28.598Z,18.33
2018-11-03T04:05:56.728Z,18.63
2018-11-03T04:08:24.876Z,20.43
2018-11-03T04:10:52.986Z,20.13
2018-11-03T04:13:21.112Z,19.93
2018-11-03T04:15:49.235Z,20.30
2018-11-03T04:18:17.449Z,20.07
2018-11-03T04:20:45.553Z,19.83
2018-11-03T04:23:13.723Z,20.03
2018-11-03T04:25:42.225Z,20.87
2018-11-03T04:28:10.357Z,20.83
2018-11-03T04:30:38.457Z,20.63
2018-11-03T04:33:06.651Z,21.97
2018-11-03T04:35:34.817Z,19.10
2018-11-03T04:38:02.966Z,26.00
2018-11-03T04:40:31.190Z,19.63
2018-11-03T04:42:59.296Z,19.57
2018-11-03T04:45:27.511Z,20.23
2018-11-03T04:47:55.588Z,19.30
2018-11-03T04:50:23.692Z,20.43
2018-11-03T04:52:51.869Z,19.10
2018-11-03T04:55:20.063Z,19.00
2018-11-03T04:57:48.142Z,18.73
2018-11-03T05:00:16.321Z,18.23
2018-11-03T05:02:44.454Z,19.30
2018-11-03T05:05:12.601Z,19.03
2018-11-03T05:07:40.700Z,19.00
2018-11-03T05:10:09.318Z,20.27
2018-11-03T05:12:38.107Z,21.10
2018-11-03T05:15:06.257Z,21.97
2018-11-03T05:17:34.666Z,21.80
2018-11-03T05:20:02.777Z,23.33
2018-11-03T05:22:30.960Z,23.00
2018-11-03T05:24:59.117Z,22.97
2018-11-03T05:27:27.465Z,22.80
2018-11-03T05:29:55.692Z,21.80
2018-11-03T05:32:23.840Z,21.60
2018-11-03T05:34:51.924Z,21.77
2018-11-03T05:37:20.098Z,22.03
2018-11-03T05:39:48.170Z,22.27
2018-11-03T05:42:16.278Z,23.00
2018-11-03T05:44:44.414Z,23.03
2018-11-03T05:47:12.654Z,22.20
2018-11-03T05:49:40.810Z,21.80
2018-11-03T05:52:08.932Z,21.77
2018-11-03T05:54:37.096Z,21.73
2018-11-03T05:57:05.842Z,21.70
2018-11-03T05:59:33.955Z,22.10
2018-11-03T06:02:02.089Z,24.33
2018-11-03T06:04:30.219Z,23.50
2018-11-03T06:06:58.409Z,22.87
2018-11-03T06:09:26.575Z,23.33
2018-11-03T06:11:54.715Z,25.07
2018-11-03T06:14:22.817Z,24.83
2018-11-03T06:16:51.044Z,26.13
2018-11-03T06:19:19.189Z,24.27
2018-11-03T06:21:47.331Z,25.07
2018-11-03T06:24:15.537Z,21.70
2018-11-03T06:26:43.630Z,23.10
2018-11-03T06:29:11.772Z,20.13
2018-11-03T06:31:39.948Z,20.60
2018-11-03T06:34:08.103Z,20.87
2018-11-03T06:36:36.238Z,19.33
2018-11-03T06:39:06.119Z,20.70
2018-11-03T06:41:34.198Z,21.67
2018-11-03T06:44:02.392Z,20.67
2018-11-03T06:46:30.563Z,21.20
2018-11-03T06:49:04.124Z,21.23
2018-11-03T06:51:32.324Z,20.10
2018-11-03T06:54:01.855Z,19.63
2018-11-03T06:56:29.982Z,19.63
2018-11-03T06:58:58.177Z,21.00
2018-11-03T07:01:26.351Z,21.60
2018-11-03T07:03:54.588Z,20.80
2018-11-03T07:06:22.752Z,20.30
2018-11-03T07:08:50.992Z,20.13
2018-11-03T07:11:19.162Z,20.13
2018-11-03T07:13:47.470Z,20.30
2018-11-03T07:16:15.643Z,20.17
2018-11-03T07:18:43.827Z,19.97
2018-11-03T07:21:12.026Z,20.17
2018-11-03T07:23:40.367Z,21.07
2018-11-03T07:26:08.590Z,20.77
2018-11-03T07:28:37.247Z,20.60
2018-11-03T07:31:05.792Z,21.50
2018-11-03T07:33:33.931Z,20.70
2018-11-03T07:36:02.069Z,19.10
2018-11-03T07:38:30.203Z,20.97
2018-11-03T07:41:05.368Z,20.57
2018-11-03T07:43:33.431Z,20.80
2018-11-03T07:46:01.549Z,21.50
2018-11-03T07:48:29.876Z,19.90
2018-11-03T07:50:58.101Z,20.00
2018-11-03T07:53:26.312Z,20.70
2018-11-03T07:55:54.644Z,19.67
2018-11-03T07:58:22.782Z,21.03
2018-11-03T08:00:50.964Z,19.37
2018-11-03T08:03:19.053Z,19.60
2018-11-03T08:05:47.157Z,19.20
2018-11-03T08:08:15.317Z,17.67
2018-11-03T08:10:43.482Z,16.77
2018-11-03T08:13:11.630Z,18.63
2018-11-03T08:15:39.853Z,17.40
2018-11-03T08:18:07.954Z,17.67
2018-11-03T08:20:36.259Z,18.07
2018-11-03T08:23:04.525Z,17.23
2018-11-03T08:25:32.664Z,19.33
2018-11-03T08:28:00.839Z,20.33
2018-11-03T08:30:29.003Z,20.20
2018-11-03T08:32:57.146Z,21.63
2018-11-03T08:35:25.286Z,18.63
2018-11-03T08:37:53.451Z,20.43
2018-11-03T08:40:21.617Z,19.17
2018-11-03T08:42:50.014Z,20.13
2018-11-03T08:45:18.154Z,20.60
2018-11-03T08:47:46.272Z,20.43
2018-11-03T08:50:14.573Z,18.90
2018-11-03T08:52:42.949Z,21.00
2018-11-03T08:55:12.408Z,21.60
2018-11-03T08:57:40.538Z,22.13
2018-11-03T09:00:13.001Z,19.57
2018-11-03T09:02:41.492Z,18.60
2018-11-03T09:05:10.390Z,19.27
2018-11-03T09:07:38.999Z,19.60
2018-11-03T09:10:11.553Z,22.80
2018-11-03T09:12:41.029Z,21.43
2018-11-03T09:15:11.625Z,19.97
2018-11-03T09:17:40.661Z,18.77
2018-11-03T09:20:10.153Z,17.80
2018-11-03T09:22:39.202Z,22.97
2018-11-03T09:25:09.873Z,26.10
2018-11-03T09:27:38.523Z,17.07
2018-11-03T09:30:08.849Z,21.90
2018-11-03T09:32:37.132Z,20.67
2018-11-03T09:35:06.538Z,17.07
2018-11-03T09:37:34.799Z,16.13
2018-11-03T09:40:03.180Z,16.27
2018-11-03T09:42:31.341Z,17.73
2018-11-03T09:44:59.582Z,19.23
2018-11-03T09:47:27.771Z,17.33
2018-11-03T09:49:56.008Z,18.50
2018-11-03T09:52:24.229Z,18.83
2018-11-03T09:54:52.375Z,19.37
2018-11-03T09:57:20.573Z,17.70
2018-11-03T09:59:48.845Z,18.80
2018-11-03T10:02:17.010Z,18.60
2018-11-03T10:04:45.202Z,18.10
2018-11-03T10:07:13.400Z,19.80
2018-11-03T10:09:41.619Z,16.43
2018-11-03T10:12:09.803Z,36.67
2018-11-03T10:14:38.018Z,15.83
2018-11-03T10:17:06.265Z,14.37
2018-11-03T10:19:34.536Z,13.33
2018-11-03T10:22:02.771Z,12.93
2018-11-03T10:24:30.941Z,14.03
2018-11-03T10:26:59.248Z,14.87
2018-11-03T10:29:27.499Z,13.63
2018-11-03T10:31:55.656Z,13.60
2018-11-03T10:34:23.811Z,12.57
2018-11-03T10:36:52.022Z,13.23
2018-11-03T10:39:20.171Z,13.53
2018-11-03T10:41:48.372Z,14.23
2018-11-03T10:44:16.615Z,10.93
2018-11-03T10:46:44.804Z,10.37
2018-11-03T10:49:13.004Z,9.43
2018-11-03T10:51:41.226Z,10.50
2018-11-03T10:54:09.408Z,9.80
2018-11-03T10:56:37.564Z,9.63
2018-11-03T10:59:05.711Z,10.83
2018-11-03T11:01:39.324Z,10.70
2018-11-03T11:04:12.793Z,9.73
2018-11-03T11:06:46.229Z,8.60
2018-11-03T11:09:19.707Z,9.87
2018-11-03T11:11:53.201Z,9.40
2018-11-03T11:14:21.467Z,8.70
2018-11-03T11:16:49.776Z,15.40
2018-11-03T11:19:17.955Z,11.73
2018-11-03T11:21:46.203Z,11.47
2018-11-03T11:24:14.522Z,10.57
2018-11-03T11:26:43.011Z,9.93
2018-11-03T11:29:11.169Z,13.00
2018-11-03T11:31:39.408Z,10.97
2018-11-03T11:34:07.489Z,10.00
2018-11-03T11:36:35.645Z,9.97
2018-11-03T11:39:04.629Z,9.73
2018-11-03T11:41:32.824Z,9.33
2018-11-03T11:44:01.095Z,9.03
2018-11-03T11:46:30.277Z,7.47
2018-11-03T11:48:58.450Z,7.43
2018-11-03T11:51:26.609Z,7.03
2018-11-03T11:53:55.039Z,7.60
2018-11-03T11:56:23.340Z,6.43
2018-11-03T11:58:51.547Z,6.70
2018-11-03T12:01:19.715Z,6.17
2018-11-03T12:03:47.919Z,6.00
2018-11-03T12:06:16.057Z,7.17
2018-11-03T12:08:44.299Z,7.23
2018-11-03T12:11:12.506Z,6.20
2018-11-03T12:13:40.727Z,6.07
2018-11-03T12:16:09.018Z,7.93
2018-11-03T12:18:37.234Z,6.73
2018-11-03T12:21:05.741Z,8.23
2018-11-03T12:23:33.944Z,6.87
2018-11-03T12:26:02.112Z,6.30
2018-11-03T12:28:30.335Z,5.87
2018-11-03T12:30:58.482Z,6.67
2018-11-03T12:33:26.661Z,6.73
2018-11-03T12:35:55.504Z,10.37
2018-11-03T12:38:23.717Z,6.40
2018-11-03T12:40:51.980Z,7.37
2018-11-03T12:43:20.091Z,6.60
2018-11-03T12:45:48.247Z,7.93
2018-11-03T12:48:16.549Z,7.70
2018-11-03T12:50:44.687Z,6.90
2018-11-03T12:53:12.802Z,6.80
2018-11-03T12:55:41.008Z,7.53
2018-11-03T12:58:09.175Z,8.20
2018-11-03T13:00:37.317Z,7.87
2018-11-03T13:03:05.850Z,6.70
2018-11-03T13:05:34.028Z,6.77
2018-11-03T13:08:02.257Z,5.93
2018-11-03T13:10:30.537Z,5.90
2018-11-03T13:12:58.743Z,17.60
2018-11-03T13:15:26.947Z,6.37
2018-11-03T13:17:55.127Z,5.33
2018-11-03T13:20:23.327Z,6.07
2018-11-03T13:22:51.658Z,5.30
2018-11-03T13:25:19.809Z,6.53
2018-11-03T13:27:47.998Z,7.03
2018-11-03T13:30:16.349Z,6.93
2018-11-03T13:32:44.534Z,8.17
2018-11-03T13:35:13.651Z,10.67
2018-11-03T13:37:41.884Z,7.43
2018-11-03T13:40:11.546Z,8.77
2018-11-03T13:42:39.765Z,7.13
2018-11-03T13:45:08.390Z,9.97
2018-11-03T13:47:37.650Z,8.53
2018-11-03T13:50:10.375Z,9.00
2018-11-03T13:52:38.523Z,8.73
2018-11-03T13:55:07.147Z,6.77
2018-11-03T13:57:35.327Z,7.70
2018-11-03T14:00:03.594Z,10.60
2018-11-03T14:02:31.808Z,10.87
2018-11-03T14:05:00.048Z,12.90
2018-11-03T14:07:28.214Z,8.20
2018-11-03T14:09:56.433Z,10.03
2018-11-03T14:12:24.673Z,8.10
2018-11-03T14:14:52.865Z,6.77
2018-11-03T14:17:21.039Z,6.10
2018-11-03T14:19:49.167Z,4.50
2018-11-03T14:22:17.360Z,5.30
2018-11-03T14:24:45.552Z,8.63
2018-11-03T14:27:13.753Z,4.87
2018-11-03T14:29:42.312Z,6.30
2018-11-03T14:32:10.494Z,4.77
2018-11-03T14:34:38.757Z,5.27
2018-11-03T14:37:07.200Z,5.73
2018-11-03T14:39:35.597Z,5.30
2018-11-03T14:42:03.889Z,4.33
2018-11-03T14:44:32.078Z,4.90
2018-11-03T14:47:00.252Z,6.37
2018-11-03T14:49:28.663Z,5.63
2018-11-03T14:51:56.883Z,6.20
2018-11-03T14:54:25.069Z,5.63
2018-11-03T14:56:53.243Z,7.17
2018-11-03T14:59:21.382Z,10.70
2018-11-03T15:01:49.624Z,6.30
2018-11-03T15:04:17.763Z,6.03
2018-11-03T15:06:45.951Z,13.43
2018-11-03T15:09:14.125Z,6.47
2018-11-03T15:11:42.305Z,13.20
2018-11-03T15:14:10.664Z,7.30
2018-11-03T15:16:39.388Z,11.30
2018-11-03T15:19:07.962Z,5.60
2018-11-03T15:21:36.290Z,5.17
2018-11-03T15:24:04.460Z,5.23
2018-11-03T15:26:32.590Z,6.10
2018-11-03T15:29:00.801Z,6.40
2018-11-03T15:31:28.941Z,6.17
2018-11-03T15:33:57.283Z,7.13
2018-11-03T15:36:25.442Z,9.27
2018-11-03T15:38:53.608Z,7.57
2018-11-03T15:41:21.974Z,6.93
2018-11-03T15:43:50.142Z,8.07
2018-11-03T15:46:18.326Z,7.27
2018-11-03T15:48:46.601Z,6.77
2018-11-03T15:51:14.857Z,7.33
2018-11-03T15:53:43.059Z,5.73
2018-11-03T15:56:11.253Z,6.63
2018-11-03T15:58:39.409Z,7.63
2018-11-03T16:01:07.537Z,12.33
2018-11-03T16:03:35.695Z,7.23
2018-11-03T16:06:03.898Z,7.60
2018-11-03T16:08:32.147Z,7.97
2018-11-03T16:11:00.382Z,7.10
2018-11-03T16:13:28.642Z,7.03
2018-11-03T16:15:56.758Z,6.20
2018-11-03T16:18:24.926Z,6.97
2018-11-03T16:20:55.971Z,25.53
2018-11-03T16:23:24.236Z,8.43
2018-11-03T16:25:52.594Z,14.70
2018-11-03T16:28:20.831Z,14.53
2018-11-03T16:30:49.122Z,9.13
2018-11-03T16:33:17.322Z,8.87
2018-11-03T16:35:45.568Z,6.60
2018-11-03T16:38:13.766Z,9.23
2018-11-03T16:40:42.410Z,10.93
2018-11-03T16:43:10.564Z,9.67
2018-11-03T16:45:38.822Z,8.03
2018-11-03T16:48:06.983Z,13.43
2018-11-03T16:50:35.158Z,9.47
2018-11-03T16:53:03.473Z,8.70
2018-11-03T16:55:31.743Z,8.07
2018-11-03T16:57:59.870Z,9.10
2018-11-03T17:00:28.222Z,9.20
2018-11-03T17:02:56.394Z,8.83
2018-11-03T17:05:24.782Z,7.57
2018-11-03T17:07:53.084Z,7.70
2018-11-03T17:10:21.535Z,9.43
2018-11-03T17:12:49.728Z,8.47
2018-11-03T17:15:17.926Z,8.43
2018-11-03T17:17:46.239Z,8.53
2018-11-03T17:20:14.443Z,9.27
2018-11-03T17:22:42.607Z,9.07
2018-11-03T17:25:11.764Z,9.60
2018-11-03T17:27:39.892Z,9.63
2018-11-03T17:30:10.024Z,9.60
2018-11-03T17:32:38.156Z,10.13
2018-11-03T17:35:06.304Z,9.10
2018-11-03T17:37:34.452Z,8.53
2018-11-03T17:40:02.616Z,8.73
2018-11-03T17:42:30.834Z,14.67
2018-11-03T17:44:59.281Z,9.37
2018-11-03T17:47:27.488Z,10.33
2018-11-03T17:49:55.655Z,13.73
2018-11-03T17:52:23.820Z,10.63
2018-11-03T17:54:58.496Z,10.90
2018-11-03T17:57:26.690Z,11.77
2018-11-03T17:59:54.902Z,11.43
2018-11-03T18:02:23.081Z,11.37
2018-11-03T18:04:51.335Z,11.00
2018-11-03T18:07:19.538Z,21.17
2018-11-03T18:09:47.700Z,16.10
2018-11-03T18:12:15.923Z,11.87
2018-11-03T18:14:44.171Z,12.63
2018-11-03T18:17:12.353Z,12.13
2018-11-03T18:19:40.574Z,13.17
2018-11-03T18:22:08.780Z,14.20
2018-11-03T18:24:36.929Z,18.53
2018-11-03T18:27:05.379Z,15.63
2018-11-03T18:29:33.514Z,16.87
2018-11-03T18:32:01.716Z,17.77
2018-11-03T18:34:29.926Z,18.43
2018-11-03T18:36:58.126Z,17.63
2018-11-03T18:39:26.371Z,17.43
2018-11-03T18:41:54.604Z,18.20
2018-11-03T18:44:22.850Z,18.70
2018-11-03T18:46:51.151Z,17.73
2018-11-03T18:49:19.198Z,39.23
2018-11-03T18:51:47.419Z,22.17
2018-11-03T18:54:15.796Z,41.67
2018-11-03T18:56:43.983Z,21.57
2018-11-03T18:59:12.196Z,19.23
2018-11-03T19:01:40.401Z,21.90
2018-11-03T19:04:08.560Z,21.27
2018-11-03T19:06:36.807Z,23.20
2018-11-03T19:09:06.717Z,20.27
2018-11-03T19:11:34.850Z,22.37
2018-11-03T19:14:03.079Z,27.10
2018-11-03T19:16:31.352Z,26.43
2018-11-03T19:18:59.582Z,32.53
2018-11-03T19:21:27.771Z,23.17
2018-11-03T19:23:56.033Z,26.00
2018-11-03T19:26:24.189Z,18.10
2018-11-03T19:28:52.460Z,19.87
2018-11-03T19:31:20.703Z,21.27
2018-11-03T19:33:48.850Z,20.53
2018-11-03T19:36:17.083Z,18.97
2018-11-03T19:38:45.332Z,18.70
2018-11-03T19:41:13.499Z,17.90
2018-11-03T19:43:41.683Z,20.00
2018-11-03T19:46:09.877Z,20.17
2018-11-03T19:48:39.006Z,20.47
2018-11-03T19:51:07.281Z,18.83
2018-11-03T19:53:35.453Z,17.20
2018-11-03T19:56:03.639Z,18.33
2018-11-03T19:58:31.856Z,17.83
2018-11-03T20:01:00.039Z,14.23
2018-11-03T20:03:28.315Z,15.07
2018-11-03T20:05:56.415Z,15.20
2018-11-03T20:08:24.597Z,16.53
2018-11-03T20:10:52.836Z,15.83
2018-11-03T20:13:21.048Z,14.60
2018-11-03T20:15:49.308Z,14.73
2018-11-03T20:18:17.509Z,15.07
2018-11-03T20:20:45.788Z,16.27
2018-11-03T20:23:13.985Z,16.47
2018-11-03T20:25:42.240Z,15.63
2018-11-03T20:28:10.434Z,15.43
2018-11-03T20:30:38.672Z,15.53
2018-11-03T20:33:06.876Z,18.47
2018-11-03T20:35:35.089Z,15.30
2018-11-03T20:38:09.796Z,18.43
2018-11-03T20:40:38.047Z,16.13
2018-11-03T20:43:06.229Z,18.73
2018-11-03T20:45:34.485Z,17.50
2018-11-03T20:48:02.725Z,16.93
2018-11-03T20:50:30.968Z,17.80
2018-11-03T20:52:59.120Z,15.57
2018-11-03T20:55:27.366Z,16.90
2018-11-03T20:57:55.688Z,19.63
2018-11-03T21:00:23.932Z,17.50
2018-11-03T21:02:52.172Z,15.87
2018-11-03T21:05:20.405Z,16.80
2018-11-03T21:07:48.733Z,15.33
2018-11-03T21:10:17.010Z,15.53
2018-11-03T21:12:45.455Z,15.37
2018-11-03T21:15:14.007Z,15.10
2018-11-03T21:17:42.190Z,17.70
2018-11-03T21:20:10.438Z,17.43
2018-11-03T21:22:38.669Z,16.23
2018-11-03T21:25:06.837Z,16.50
2018-11-03T21:27:37.973Z,15.80
2018-11-03T21:30:07.713Z,16.87
2018-11-03T21:32:35.930Z,17.30
2018-11-03T21:35:04.164Z,22.93
2018-11-03T21:37:32.363Z,16.77
2018-11-03T21:40:00.525Z,17.00
2018-11-03T21:42:28.684Z,17.10
2018-11-03T21:44:57.668Z,17.90
2018-11-03T21:47:25.887Z,17.33
2018-11-03T21:49:54.073Z,17.47
2018-11-03T21:52:22.230Z,17.77
2018-11-03T21:54:50.440Z,18.50
2018-11-03T21:57:18.597Z,18.07
2018-11-03T21:59:46.786Z,19.27
2018-11-03T22:02:14.979Z,17.27
2018-11-03T22:04:43.149Z,18.03
2018-11-03T22:07:11.302Z,16.50
2018-11-03T22:09:39.497Z,17.20
2018-11-03T22:12:07.663Z,19.13
2018-11-03T22:14:35.825Z,18.57
2018-11-03T22:17:04.321Z,21.80
2018-11-03T22:19:32.742Z,18.40
2018-11-03T22:22:00.904Z,20.00
2018-11-03T22:24:29.064Z,19.53
2018-11-03T22:26:57.286Z,18.37
2018-11-03T22:29:25.546Z,19.57
2018-11-03T22:31:53.704Z,20.23
2018-11-03T22:34:21.931Z,18.13
2018-11-03T22:36:50.073Z,20.80
2018-11-03T22:39:18.243Z,18.43
2018-11-03T22:41:46.533Z,21.77
2018-11-03T22:44:14.784Z,22.03
2018-11-03T22:46:42.906Z,18.50
2018-11-03T22:49:11.057Z,17.87
2018-11-03T22:51:39.204Z,18.65
2018-11-03T22:54:07.377Z,19.80
2018-11-03T22:56:35.537Z,18.90
2018-11-03T22:59:03.813Z,18.80
2018-11-03T23:01:31.974Z,18.80
2018-11-03T23:04:00.127Z,18.02
2018-11-03T23:06:28.291Z,18.83
2018-11-03T23:08:56.417Z,18.30
2018-11-03T23:11:24.564Z,18.35
2018-11-03T23:13:52.797Z,18.52
2018-11-03T23:16:20.847Z,17.98
2018-11-03T23:18:48.969Z,21.10
2018-11-03T23:21:17.097Z,17.70
2018-11-03T23:23:45.227Z,18.73
2018-11-03T23:26:13.401Z,20.70
2018-11-03T23:28:41.675Z,18.90
2018-11-03T23:31:09.826Z,18.48
2018-11-03T23:33:38.007Z,18.13
2018-11-03T23:36:06.255Z,18.52
2018-11-03T23:38:34.408Z,19.57
2018-11-03T23:41:02.540Z,19.67
2018-11-03T23:43:30.772Z,18.65
2018-11-03T23:45:58.932Z,20.05
2018-11-03T23:48:27.083Z,19.30
2018-11-03T23:50:55.193Z,21.27
2018-11-03T23:53:23.395Z,21.33
2018-11-03T23:55:51.541Z,20.23
2018-11-03T23:58:19.751Z,20.45
